Arcadia, MI

6:34 AM EST on January 30, 2015 (GMT -0500)
Benzie | Change Station
CLOSE
Current Station
Personal Weather Station
Location: Benzonia, MI
Elevation: 811 ft
Nearby Weather Stations
Active Advisory: Winter Weather Advisory Active Notice: Record Report

Elev 811 ft 44.54 °N, 86.11 °W | Updated 3 minutes ago

Overcast
Overcast
19.0 °F
Feels Like 19 °F
N
2.0
Wind Variable Wind from NNW
Gusts 0.0 mph

Today
High -- | Low -- °F
--% Chance of Precip.
Yesterday
High -- | Low -- °F
Precip. -- in
8:05 AM 5:50 PM
Waxing Gibbous, 82% visible
Pressure 30.40 in
Visibility 10.0 miles
Clouds Overcast 3000 ft
Windchill 19 °F
Dew Point 13 °F
Humidity 78%
Rainfall 0.00 in
Snow Depth Not available.
UV 0 out of 12
Pollen .10 out of 12
Air Quality Not available.
Flu Activity Not available.
METAR KFKS 301112Z AUTO 34014G19KT 10SM OVC030 M07/M12 A3040 RMK AO2 T10751123

More Conditions Fewer Conditions

Pressure 30.40 in
Visibility 10.0 miles
Clouds Overcast 3000 ft
Windchill 19 °F
Dew Point 13 °F
Humidity 78%
Rainfall 0.00 in
Snow Depth Not available.
UV 0 out of 12
Pollen .10 out of 12
Air Quality Not available.
Flu Activity Not available.
METAR KFKS 301112Z AUTO 34014G19KT 10SM OVC030 M07/M12 A3040 RMK AO2 T10751123

More Conditions Fewer Conditions

Nowcast | as of 6:00 am EST on January 30, 2015

Winter Weather Advisory in effect until noon EST today... At 7 am...cloudy. Scattered snow showers. Temperature 17. North winds 15 mph. At 9 am...mostly cloudy. Scattered snow showers. Temperature 17. North winds 13 mph. At 11 am...mostly cloudy. Scattered snow showers. Temperature 18. North winds 10 mph. At 1 PM...mostly cloudy. Scattered snow showers. Temperature 19. Northwest winds 10 mph.

×

10-Day Weather Forecast

Almanac

Astronomy

Jan. 30, 2015 Rise Set
Actual Time
Civil Twilight
Nautical Twilight
Astronomical Twilight
Moon
Length of Visible Light
Length of Day
Tomorrow will be .
, % of the Moon is Illuminated

Today's Extremes

State Highs State Lows

Community

WunderPhotos

Upload Photos

1,791,737 photos uploaded!

WunderBlogs® & News

Nearby

Air Quality

  Air Quality AQ Index Pollutant
Not available.

Snow Depth

Station Depth Elevation

Earthquake Activity

City Distance Mag. Time & Date
Minimum magnitude displayed is 2.5.

Coastal Water Temperatures

Place Temperature

Nearby Weather Stations